createdAt,value
2018-12-31T11:31:04.738Z,99559.02
2018-12-31T11:33:33.606Z,99560.27
2018-12-31T11:36:02.798Z,99559.47
2018-12-31T11:38:31.650Z,99566.03
2018-12-31T11:41:01.341Z,99561.14
2018-12-31T11:43:30.331Z,99554.45
2018-12-31T11:45:59.515Z,99552.49
2018-12-31T11:48:28.350Z,99556.93
2018-12-31T11:50:57.200Z,99555.13
2018-12-31T11:53:26.098Z,99554.66
2018-12-31T11:55:54.934Z,99554.50
2018-12-31T11:58:23.850Z,99556.30
2018-12-31T12:00:52.951Z,99550.84
2018-12-31T12:03:21.957Z,99557.73
2018-12-31T12:05:53.607Z,99556.45
2018-12-31T12:08:22.581Z,99559.95
2018-12-31T12:10:51.515Z,99549.41
2018-12-31T12:13:20.598Z,99550.69
2018-12-31T12:15:49.463Z,99550.17
2018-12-31T12:18:18.336Z,99548.53
2018-12-31T12:20:47.245Z,99551.45
2018-12-31T12:23:16.089Z,99551.70
2018-12-31T12:25:45.037Z,99552.25
2018-12-31T12:28:13.979Z,99554.18
2018-12-31T12:30:43.214Z,99559.39
2018-12-31T12:33:12.367Z,99553.55
2018-12-31T12:35:41.257Z,99550.97
2018-12-31T12:38:10.596Z,99550.48
2018-12-31T12:40:39.407Z,99553.10
2018-12-31T12:43:08.242Z,99553.26
2018-12-31T12:45:37.065Z,99556.15
2018-12-31T12:48:05.917Z,99550.66
2018-12-31T12:50:34.771Z,99557.55
2018-12-31T12:53:03.699Z,99558.03
2018-12-31T12:55:33.256Z,99560.47
2018-12-31T12:58:02.192Z,99559.87
2018-12-31T13:00:31.046Z,99565.48
2018-12-31T13:03:00.097Z,99571.73
2018-12-31T13:05:30.167Z,99575.41
2018-12-31T13:07:59.119Z,99570.92
2018-12-31T13:10:28.039Z,99577.22
2018-12-31T13:12:56.891Z,99576.81
2018-12-31T13:15:25.779Z,99575.38
2018-12-31T13:17:54.630Z,99569.61
2018-12-31T13:20:23.486Z,99569.38
2018-12-31T13:22:52.414Z,99567.20
2018-12-31T13:25:21.371Z,99564.20
2018-12-31T13:27:50.267Z,99568.28
2018-12-31T13:30:19.183Z,99568.20
2018-12-31T13:32:48.213Z,99574.69
2018-12-31T13:35:17.119Z,99569.89
2018-12-31T13:37:46.152Z,99565.59
2018-12-31T13:40:15.145Z,99561.63
2018-12-31T13:42:46.476Z,99564.27
2018-12-31T13:45:17.552Z,99563.23
2018-12-31T13:47:46.524Z,99564.80
2018-12-31T13:50:15.607Z,99563.64
2018-12-31T13:52:45.015Z,99566.25
2018-12-31T13:55:19.366Z,99569.97
2018-12-31T13:57:48.338Z,99564.84
2018-12-31T14:00:18.569Z,99573.52
2018-12-31T14:02:47.572Z,99573.44
2018-12-31T14:05:16.708Z,99571.00
2018-12-31T14:07:45.635Z,99573.64
2018-12-31T14:10:14.652Z,99576.55
2018-12-31T14:12:43.667Z,99574.91
2018-12-31T14:15:12.607Z,99567.78
2018-12-31T14:17:41.426Z,99566.70
2018-12-31T14:20:10.412Z,99568.45
2018-12-31T14:22:40.664Z,99574.33
2018-12-31T14:25:09.993Z,99574.96
2018-12-31T14:27:38.863Z,99577.13
2018-12-31T14:30:11.815Z,99579.18
2018-12-31T14:32:43.300Z,99582.39
2018-12-31T14:35:12.200Z,99579.06
2018-12-31T14:37:41.038Z,99578.42
2018-12-31T14:40:10.359Z,99581.39
2018-12-31T14:42:40.038Z,99580.63
2018-12-31T14:45:08.999Z,99574.37
2018-12-31T14:47:37.842Z,99581.44
2018-12-31T14:50:06.885Z,99578.06
2018-12-31T14:52:37.873Z,99585.47
2018-12-31T14:55:08.662Z,99593.56
2018-12-31T14:57:37.554Z,99593.45
2018-12-31T15:00:09.813Z,99596.77
2018-12-31T15:02:38.797Z,99592.88
2018-12-31T15:05:09.231Z,99596.52
2018-12-31T15:07:38.171Z,99593.20
2018-12-31T15:10:08.348Z,99593.31
2018-12-31T15:12:37.260Z,99591.39
2018-12-31T15:15:07.027Z,99594.95
2018-12-31T15:17:37.057Z,99589.93
2018-12-31T15:20:07.642Z,99591.78
2018-12-31T15:22:36.556Z,99587.91
2018-12-31T15:25:05.589Z,99588.45
2018-12-31T15:27:34.562Z,99590.09
2018-12-31T15:30:03.677Z,99594.15
2018-12-31T15:32:32.573Z,99597.91
2018-12-31T15:35:01.496Z,99590.23
2018-12-31T15:37:30.401Z,99590.94
2018-12-31T15:40:02.195Z,99597.91
2018-12-31T15:42:31.185Z,99609.06
2018-12-31T15:45:00.256Z,99606.25
2018-12-31T15:47:29.724Z,99607.11
2018-12-31T15:49:58.563Z,99608.59
2018-12-31T15:52:27.473Z,99611.41
2018-12-31T15:54:57.466Z,99611.93
2018-12-31T15:57:26.392Z,99610.22
2018-12-31T15:59:56.443Z,99606.05
2018-12-31T16:02:25.438Z,99604.94
2018-12-31T16:04:54.364Z,99609.81
2018-12-31T16:07:23.227Z,99600.03
2018-12-31T16:09:52.962Z,99600.08
2018-12-31T16:12:22.041Z,99603.83
2018-12-31T16:14:51.000Z,99599.55
2018-12-31T16:17:19.913Z,99599.75
2018-12-31T16:19:48.741Z,99603.72
2018-12-31T16:22:17.681Z,99614.51
2018-12-31T16:24:46.546Z,99614.94
2018-12-31T16:27:15.483Z,99615.50
2018-12-31T16:29:44.505Z,99616.31
2018-12-31T16:32:13.537Z,99617.63
2018-12-31T16:34:42.470Z,99613.50
2018-12-31T16:37:11.434Z,99599.64
2018-12-31T16:39:40.339Z,99601.30
2018-12-31T16:42:09.552Z,99609.70
2018-12-31T16:44:40.832Z,99610.44
2018-12-31T16:47:10.568Z,99612.72
2018-12-31T16:49:41.391Z,99615.34
2018-12-31T16:52:10.229Z,99610.44
2018-12-31T16:54:39.101Z,99610.55
2018-12-31T16:57:08.108Z,99611.71
2018-12-31T16:59:37.089Z,99612.19
2018-12-31T17:02:05.994Z,99619.05
2018-12-31T17:04:34.845Z,99615.09
2018-12-31T17:07:03.655Z,99616.42
2018-12-31T17:09:32.497Z,99613.83
2018-12-31T17:12:01.296Z,99612.44
2018-12-31T17:14:30.142Z,99607.28
2018-12-31T17:16:59.215Z,99602.39
2018-12-31T17:19:28.472Z,99605.16
2018-12-31T17:21:57.462Z,99601.36
2018-12-31T17:24:26.468Z,99609.06
2018-12-31T17:26:58.290Z,99619.58
2018-12-31T17:29:27.150Z,99624.35
2018-12-31T17:31:56.563Z,99625.56
2018-12-31T17:34:27.777Z,99617.20
2018-12-31T17:36:56.673Z,99616.24
2018-12-31T17:39:25.594Z,99609.02
2018-12-31T17:41:56.771Z,99614.14
2018-12-31T17:44:25.613Z,99613.23
2018-12-31T17:46:54.498Z,99608.58
2018-12-31T17:49:24.075Z,99614.93
2018-12-31T17:51:55.808Z,99609.47
2018-12-31T17:54:23.573Z,99608.84
2018-12-31T17:56:54.069Z,99616.45
2018-12-31T17:59:23.027Z,99622.95
2018-12-31T18:01:54.254Z,99621.63
2018-12-31T18:04:28.436Z,99619.71
2018-12-31T18:06:58.473Z,99623.00
2018-12-31T18:09:29.717Z,99627.48
2018-12-31T18:11:58.639Z,99627.32
2018-12-31T18:14:28.821Z,99627.13
2018-12-31T18:16:57.637Z,99630.45
2018-12-31T18:19:26.465Z,99634.10
2018-12-31T18:21:55.272Z,99636.58
2018-12-31T18:24:38.928Z,99636.58
2018-12-31T18:27:21.911Z,99639.07
2018-12-31T18:29:54.857Z,99640.39
2018-12-31T18:32:29.612Z,99636.78
2018-12-31T18:35:01.493Z,99643.05
2018-12-31T18:37:32.998Z,99650.34
2018-12-31T18:40:07.341Z,99648.06
2018-12-31T18:42:50.331Z,99646.45
2018-12-31T18:45:26.705Z,99643.17
2018-12-31T18:47:57.144Z,99635.87
2018-12-31T18:50:26.072Z,99635.11
2018-12-31T18:52:59.144Z,99641.40
2018-12-31T18:55:34.388Z,99653.51
2018-12-31T18:58:06.454Z,99665.66
2018-12-31T19:00:38.057Z,99663.09
2018-12-31T19:03:06.871Z,99663.86
2018-12-31T19:05:35.681Z,99660.73
2018-12-31T19:08:04.653Z,99661.45
2018-12-31T19:10:33.559Z,99666.94
2018-12-31T19:13:02.458Z,99656.88
2018-12-31T19:15:31.362Z,99658.63
2018-12-31T19:18:00.196Z,99657.16
2018-12-31T19:20:29.372Z,99659.77
2018-12-31T19:22:58.254Z,99651.82
2018-12-31T19:25:27.104Z,99657.74
2018-12-31T19:27:55.974Z,99655.73
2018-12-31T19:30:24.885Z,99656.81
2018-12-31T19:32:54.097Z,99667.64
2018-12-31T19:35:23.078Z,99666.05
2018-12-31T19:37:51.970Z,99659.44
2018-12-31T19:40:20.811Z,99671.23
2018-12-31T19:42:49.603Z,99664.62
2018-12-31T19:45:18.458Z,99664.09
2018-12-31T19:47:47.342Z,99666.58
2018-12-31T19:50:16.306Z,99667.38
2018-12-31T19:52:45.322Z,99667.21
2018-12-31T19:55:14.159Z,99660.44
2018-12-31T19:57:43.073Z,99666.89
2018-12-31T20:00:12.020Z,99655.67
2018-12-31T20:02:40.991Z,99650.45
2018-12-31T20:05:09.898Z,99648.28
2018-12-31T20:07:38.808Z,99643.16
2018-12-31T20:10:07.903Z,99637.02
2018-12-31T20:12:36.788Z,99635.38
2018-12-31T20:15:06.171Z,99634.10
2018-12-31T20:17:35.012Z,99638.67
2018-12-31T20:20:03.924Z,99630.94
2018-12-31T20:22:32.815Z,99626.97
2018-12-31T20:25:02.007Z,99634.07
2018-12-31T20:27:30.834Z,99637.52
2018-12-31T20:29:59.638Z,99638.52
2018-12-31T20:32:29.780Z,99642.33
2018-12-31T20:35:01.108Z,99634.19
2018-12-31T20:37:30.511Z,99635.34
2018-12-31T20:39:59.404Z,99634.63
2018-12-31T20:42:28.228Z,99631.30
2018-12-31T20:44:57.149Z,99627.05
2018-12-31T20:47:26.052Z,99629.38
2018-12-31T20:49:54.862Z,99631.02
2018-12-31T20:52:24.033Z,99628.22
2018-12-31T20:54:52.827Z,99627.13
2018-12-31T20:57:21.666Z,99623.12
2018-12-31T20:59:50.476Z,99626.13
2018-12-31T21:02:19.447Z,99626.33
2018-12-31T21:04:48.566Z,99625.00
2018-12-31T21:07:17.462Z,99627.17
2018-12-31T21:09:46.271Z,99631.37
2018-12-31T21:12:15.143Z,99626.27
2018-12-31T21:14:43.967Z,99632.61
2018-12-31T21:17:13.290Z,99627.28
2018-12-31T21:19:42.176Z,99627.44
2018-12-31T21:22:11.004Z,99631.09
2018-12-31T21:24:40.017Z,99629.95
2018-12-31T21:27:10.481Z,99623.18
2018-12-31T21:29:39.761Z,99630.48
2018-12-31T21:32:08.683Z,99629.02
2018-12-31T21:34:37.681Z,99626.89
2018-12-31T21:37:06.801Z,99635.64
2018-12-31T21:39:35.606Z,99632.99
2018-12-31T21:42:04.578Z,99638.64
2018-12-31T21:44:33.684Z,99633.70
2018-12-31T21:47:02.585Z,99630.89
2018-12-31T21:49:31.489Z,99627.59
2018-12-31T21:52:00.449Z,99624.62
2018-12-31T21:54:29.437Z,99623.81
2018-12-31T21:56:58.742Z,99627.98
2018-12-31T21:59:27.635Z,99623.84
2018-12-31T22:01:56.665Z,99618.52
2018-12-31T22:04:25.495Z,99622.30
2018-12-31T22:06:54.397Z,99615.81
2018-12-31T22:09:23.252Z,99618.14
2018-12-31T22:11:52.096Z,99619.59
2018-12-31T22:14:20.944Z,99615.00
2018-12-31T22:16:51.630Z,99613.88
2018-12-31T22:19:20.450Z,99614.69
2018-12-31T22:21:49.332Z,99607.03
2018-12-31T22:24:18.313Z,99611.98
2018-12-31T22:26:47.274Z,99613.88
2018-12-31T22:29:16.175Z,99608.25
2018-12-31T22:31:44.979Z,99600.62
2018-12-31T22:34:14.162Z,99603.70
2018-12-31T22:36:43.045Z,99593.80
2018-12-31T22:39:12.048Z,99591.96
2018-12-31T22:41:40.876Z,99589.45
2018-12-31T22:44:09.698Z,99588.13
2018-12-31T22:46:38.563Z,99595.61
2018-12-31T22:49:07.734Z,99584.17
2018-12-31T22:51:36.549Z,99583.69
2018-12-31T22:54:05.447Z,99584.38
2018-12-31T22:56:34.409Z,99589.36
2018-12-31T22:59:03.332Z,99597.83
2018-12-31T23:01:32.629Z,99597.02
2018-12-31T23:04:01.550Z,99598.84
2018-12-31T23:06:30.435Z,99588.60
2018-12-31T23:08:59.292Z,99587.79
2018-12-31T23:11:28.128Z,99588.46
2018-12-31T23:13:57.394Z,99589.10
2018-12-31T23:16:27.555Z,99595.73
2018-12-31T23:18:56.377Z,99584.00
2018-12-31T23:21:25.193Z,99582.50
2018-12-31T23:23:54.032Z,99583.66
2018-12-31T23:26:23.351Z,99583.86
2018-12-31T23:28:52.794Z,99582.36
2018-12-31T23:31:21.663Z,99584.31
2018-12-31T23:33:50.526Z,99581.53
2018-12-31T23:36:19.431Z,99588.31
2018-12-31T23:38:48.262Z,99583.69
2018-12-31T23:41:17.231Z,99585.34
2018-12-31T23:43:46.022Z,99579.72
2018-12-31T23:46:14.876Z,99577.38
2018-12-31T23:48:43.702Z,99573.42
2018-12-31T23:51:12.607Z,99573.41
2018-12-31T23:53:43.267Z,99570.92
2018-12-31T23:56:12.214Z,99576.07
2018-12-31T23:58:41.029Z,99575.17
